Time,TemperatureF,DewpointF,PressureIn,WindDirection,WindDirectionDegrees,WindSpeedMPH,WindSpeedGustMPH,Humidity,HourlyPrecipIn,Conditions,Clouds,dailyrainin,SolarRadiationWatts/m^2,SoftwareType,DateUTC
2013-11-14 00:12:00,34.0,19.0,-100.00,South,170,0.0,2.0,54,0.00,,,0.00,0.000000,,2013-11-14 08:12:00,
2013-11-14 00:21:00,34.0,19.0,-100.00,South,170,0.0,2.0,54,0.00,,,0.00,0.000000,,2013-11-14 08:21:00,
2013-11-14 00:32:00,34.0,19.0,-100.00,South,170,0.0,2.0,54,0.00,,,0.00,0.000000,,2013-11-14 08:32:00,
2013-11-14 00:42:00,34.0,19.0,-100.00,South,170,0.0,2.0,54,0.00,,,0.00,0.000000,,2013-11-14 08:42:00,
2013-11-14 01:21:00,32.0,19.0,-100.00,WSW,241,0.0,0.0,59,0.00,,,0.00,0.000000,,2013-11-14 09:21:00,
2013-11-14 01:33:00,32.0,19.0,-100.00,WSW,241,0.0,0.0,59,0.00,,,0.00,0.000000,,2013-11-14 09:33:00,
2013-11-14 01:43:00,32.0,19.0,-100.00,WSW,241,0.0,0.0,59,0.00,,,0.00,0.000000,,2013-11-14 09:43:00,
2013-11-14 02:23:00,32.0,20.0,-100.00,NNE,26,0.0,4.0,61,0.00,,,0.00,0.000000,,2013-11-14 10:23:00,
2013-11-14 02:33:00,32.0,20.0,-100.00,NNE,26,0.0,4.0,61,0.00,,,0.00,0.000000,,2013-11-14 10:33:00,
2013-11-14 02:42:00,32.0,20.0,-100.00,NNE,26,0.0,4.0,61,0.00,,,0.00,0.000000,,2013-11-14 10:42:00,
2013-11-14 03:11:00,31.0,20.0,-100.00,South,180,0.0,3.0,64,0.00,,,0.00,0.000000,,2013-11-14 11:11:00,
2013-11-14 03:21:00,31.0,20.0,-100.00,South,180,0.0,3.0,64,0.00,,,0.00,0.000000,,2013-11-14 11:21:00,
2013-11-14 03:32:00,31.0,20.0,-100.00,South,180,0.0,3.0,64,0.00,,,0.00,0.000000,,2013-11-14 11:32:00,
2013-11-14 03:42:00,31.0,20.0,-100.00,South,180,0.0,3.0,64,0.00,,,0.00,0.000000,,2013-11-14 11:42:00,
2013-11-14 04:12:00,30.0,20.0,-100.00,ESE,113,0.0,3.0,66,0.00,,,0.00,0.000000,,2013-11-14 12:12:00,
2013-11-14 04:21:00,30.0,20.0,-100.00,ESE,113,0.0,3.0,66,0.00,,,0.00,0.000000,,2013-11-14 12:21:00,
2013-11-14 04:32:00,30.0,20.0,-100.00,ESE,113,0.0,3.0,66,0.00,,,0.00,0.000000,,2013-11-14 12:32:00,
2013-11-14 04:41:00,30.0,20.0,-100.00,ESE,113,0.0,3.0,66,0.00,,,0.00,0.000000,,2013-11-14 12:41:00,
2013-11-14 05:11:00,29.0,20.0,-100.00,ESE,103,0.0,4.0,69,0.00,,,0.00,0.000000,,2013-11-14 13:11:00,
2013-11-14 05:22:00,29.0,20.0,-100.00,ESE,103,0.0,4.0,69,0.00,,,0.00,0.000000,,2013-11-14 13:22:00,
2013-11-14 05:32:00,29.0,20.0,-100.00,ESE,103,0.0,4.0,69,0.00,,,0.00,0.000000,,2013-11-14 13:32:00,
2013-11-14 05:42:00,29.0,20.0,-100.00,ESE,103,0.0,4.0,69,0.00,,,0.00,0.000000,,2013-11-14 13:42:00,
2013-11-14 06:11:00,27.0,20.0,-100.00,SSW,210,0.0,2.0,73,0.00,,,0.00,0.000000,,2013-11-14 14:11:00,
2013-11-14 06:22:00,27.0,20.0,-100.00,SSW,210,0.0,2.0,73,0.00,,,0.00,0.000000,,2013-11-14 14:22:00,
2013-11-14 06:32:00,27.0,20.0,-100.00,SSW,210,0.0,2.0,73,0.00,,,0.00,0.000000,,2013-11-14 14:32:00,
2013-11-14 06:42:00,27.0,20.0,-100.00,SSW,210,0.0,2.0,73,0.00,,,0.00,0.000000,,2013-11-14 14:42:00,
2013-11-14 07:11:00,28.0,20.0,-100.00,WSW,253,0.0,3.0,70,0.00,,,0.00,2.000000,,2013-11-14 15:11:00,
2013-11-14 07:21:00,28.0,20.0,-100.00,WSW,253,0.0,3.0,70,0.00,,,0.00,2.000000,,2013-11-14 15:21:00,
2013-11-14 07:33:00,28.0,20.0,-100.00,WSW,253,0.0,3.0,70,0.00,,,0.00,2.000000,,2013-11-14 15:33:00,
2013-11-14 07:42:00,28.0,20.0,-100.00,WSW,253,0.0,3.0,70,0.00,,,0.00,2.000000,,2013-11-14 15:42:00,
2013-11-14 08:13:00,32.0,19.0,-100.00,WSW,250,1.0,6.0,58,0.00,,,0.00,49.000000,,2013-11-14 16:13:00,
2013-11-14 08:23:00,32.0,19.0,-100.00,WSW,250,1.0,6.0,58,0.00,,,0.00,49.000000,,2013-11-14 16:23:00,
2013-11-14 08:33:00,32.0,19.0,-100.00,WSW,250,1.0,6.0,58,0.00,,,0.00,49.000000,,2013-11-14 16:33:00,
2013-11-14 08:42:00,32.0,19.0,-100.00,WSW,250,1.0,6.0,58,0.00,,,0.00,49.000000,,2013-11-14 16:42:00,
2013-11-14 09:22:00,43.0,17.0,-100.00,SE,139,3.0,7.0,35,0.00,,,-99.99,247.000000,,2013-11-14 17:22:00,
2013-11-14 09:32:00,43.0,17.0,-100.00,SE,139,3.0,7.0,35,0.00,,,-99.99,247.000000,,2013-11-14 17:32:00,
2013-11-14 09:42:00,43.0,17.0,-100.00,SE,139,3.0,7.0,35,0.00,,,-99.99,247.000000,,2013-11-14 17:42:00,
2013-11-14 10:21:00,59.0,20.0,-100.00,South,190,4.0,14.0,22,0.00,,,0.00,409.000000,,2013-11-14 18:21:00,
2013-11-14 10:32:00,59.0,20.0,-100.00,South,190,4.0,14.0,22,0.00,,,0.00,409.000000,,2013-11-14 18:32:00,
2013-11-14 11:21:00,63.0,16.0,-100.00,SW,216,7.0,17.0,16,-99.99,,,0.00,560.000000,,2013-11-14 19:21:00,
2013-11-14 11:31:00,63.0,16.0,-100.00,SW,216,7.0,17.0,16,-99.99,,,0.00,560.000000,,2013-11-14 19:31:00,
2013-11-14 11:41:00,63.0,16.0,-100.00,SW,216,7.0,17.0,16,-99.99,,,0.00,560.000000,,2013-11-14 19:41:00,
2013-11-14 12:22:00,65.0,16.0,-100.00,South,189,7.0,23.0,15,0.00,,,0.00,489.000000,,2013-11-14 20:22:00,
2013-11-14 12:32:00,65.0,16.0,-100.00,South,189,7.0,23.0,15,0.00,,,0.00,489.000000,,2013-11-14 20:32:00,
2013-11-14 12:41:00,65.0,16.0,-100.00,South,189,7.0,23.0,15,0.00,,,0.00,489.000000,,2013-11-14 20:41:00,
2013-11-14 13:11:00,63.0,15.0,-100.00,SSW,197,8.0,21.0,15,0.00,,,0.00,576.000000,,2013-11-14 21:11:00,
2013-11-14 13:22:00,63.0,15.0,-100.00,SSW,197,8.0,21.0,15,0.00,,,0.00,576.000000,,2013-11-14 21:22:00,
2013-11-14 13:33:00,63.0,15.0,-100.00,SSW,197,8.0,21.0,15,0.00,,,0.00,576.000000,,2013-11-14 21:33:00,
2013-11-14 13:43:00,63.0,15.0,-100.00,SSW,197,8.0,21.0,15,0.00,,,0.00,576.000000,,2013-11-14 21:43:00,
2013-11-14 14:23:00,64.0,17.0,-100.00,SSW,203,8.0,23.0,16,0.00,,,0.00,445.000000,,2013-11-14 22:23:00,
2013-11-14 14:33:00,64.0,17.0,-100.00,SSW,203,8.0,23.0,16,0.00,,,0.00,445.000000,,2013-11-14 22:33:00,
2013-11-14 14:43:00,64.0,17.0,-100.00,SSW,203,8.0,23.0,16,0.00,,,0.00,445.000000,,2013-11-14 22:43:00,
2013-11-14 15:12:00,63.0,18.0,-100.00,West,263,6.0,19.0,17,0.00,,,0.00,460.000000,,2013-11-14 23:12:00,
2013-11-14 15:22:00,63.0,18.0,-100.00,West,263,6.0,19.0,17,0.00,,,0.00,460.000000,,2013-11-14 23:22:00,
2013-11-14 15:33:00,63.0,18.0,-100.00,West,263,6.0,19.0,17,0.00,,,0.00,460.000000,,2013-11-14 23:33:00,
2013-11-14 15:43:00,63.0,18.0,-100.00,West,263,6.0,19.0,17,0.00,,,0.00,460.000000,,2013-11-14 23:43:00,
2013-11-14 16:11:00,57.0,19.0,-100.00,WSW,242,8.0,21.0,22,0.00,,,0.00,224.000000,,2013-11-15 00:11:00,
2013-11-14 16:21:00,57.0,19.0,-100.00,WSW,242,8.0,21.0,22,0.00,,,0.00,224.000000,,2013-11-15 00:21:00,
2013-11-14 16:32:00,57.0,19.0,-100.00,WSW,242,8.0,21.0,22,0.00,,,0.00,224.000000,,2013-11-15 00:32:00,
2013-11-14 16:41:00,57.0,19.0,-100.00,WSW,242,8.0,21.0,22,0.00,,,0.00,224.000000,,2013-11-15 00:41:00,
2013-11-14 17:12:00,54.0,20.0,-100.00,WSW,237,5.0,21.0,26,0.00,,,0.00,49.000000,,2013-11-15 01:12:00,
2013-11-14 17:22:00,54.0,20.0,-100.00,WSW,237,5.0,21.0,26,0.00,,,0.00,49.000000,,2013-11-15 01:22:00,
2013-11-14 17:32:00,54.0,20.0,-100.00,WSW,237,5.0,21.0,26,0.00,,,0.00,49.000000,,2013-11-15 01:32:00,
2013-11-14 17:42:00,54.0,20.0,-100.00,WSW,237,5.0,21.0,26,0.00,,,0.00,49.000000,,2013-11-15 01:42:00,
2013-11-14 18:12:00,50.0,20.0,-100.00,SW,234,7.0,19.0,30,0.00,,,0.00,0.000000,,2013-11-15 02:12:00,
2013-11-14 18:22:00,50.0,20.0,-100.00,SW,234,7.0,19.0,30,0.00,,,0.00,0.000000,,2013-11-15 02:22:00,
2013-11-14 18:32:00,50.0,20.0,-100.00,SW,234,7.0,19.0,30,0.00,,,0.00,0.000000,,2013-11-15 02:32:00,
2013-11-14 18:42:00,50.0,20.0,-100.00,SW,234,7.0,19.0,30,0.00,,,0.00,0.000000,,2013-11-15 02:42:00,
2013-11-14 19:12:00,50.0,21.0,-100.00,NNW,347,7.0,19.0,31,0.00,,,0.00,0.000000,,2013-11-15 03:12:00,
2013-11-14 19:21:00,50.0,21.0,-100.00,NNW,347,7.0,19.0,31,0.00,,,0.00,0.000000,,2013-11-15 03:21:00,
2013-11-14 19:33:00,50.0,21.0,-100.00,NNW,347,7.0,19.0,31,0.00,,,0.00,0.000000,,2013-11-15 03:33:00,
2013-11-14 19:44:00,50.0,21.0,-100.00,NNW,347,7.0,19.0,31,0.00,,,0.00,0.000000,,2013-11-15 03:44:00,
2013-11-14 20:14:00,49.0,23.0,-100.00,SW,227,5.0,20.0,35,0.00,,,0.00,0.000000,,2013-11-15 04:14:00,
2013-11-14 20:23:00,49.0,23.0,-100.00,SW,227,5.0,20.0,35,0.00,,,0.00,0.000000,,2013-11-15 04:23:00,
2013-11-14 20:33:00,49.0,23.0,-100.00,SW,227,5.0,20.0,35,0.00,,,0.00,0.000000,,2013-11-15 04:33:00,
2013-11-14 20:42:00,49.0,23.0,-100.00,SW,227,5.0,20.0,35,0.00,,,0.00,0.000000,,2013-11-15 04:42:00,
2013-11-14 21:13:00,47.0,23.0,-100.00,SE,125,0.0,15.0,38,0.00,,,0.00,0.000000,,2013-11-15 05:13:00,
2013-11-14 21:22:00,47.0,23.0,-100.00,SE,125,0.0,15.0,38,0.00,,,0.00,0.000000,,2013-11-15 05:22:00,
2013-11-14 21:33:00,47.0,23.0,-100.00,SE,125,0.0,15.0,38,0.00,,,0.00,0.000000,,2013-11-15 05:33:00,
2013-11-14 21:43:00,47.0,23.0,-100.00,SE,125,0.0,15.0,38,0.00,,,0.00,0.000000,,2013-11-15 05:43:00,
2013-11-14 22:12:00,44.0,22.0,-100.00,SSW,204,0.0,6.0,41,0.00,,,0.00,0.000000,,2013-11-15 06:12:00,
2013-11-14 22:23:00,44.0,22.0,-100.00,SSW,204,0.0,6.0,41,0.00,,,0.00,0.000000,,2013-11-15 06:23:00,
2013-11-14 22:32:00,44.0,22.0,-100.00,SSW,204,0.0,6.0,41,0.00,,,0.00,0.000000,,2013-11-15 06:32:00,
2013-11-14 22:43:00,44.0,22.0,-100.00,SSW,204,0.0,6.0,41,0.00,,,0.00,0.000000,,2013-11-15 06:43:00,
2013-11-14 23:12:00,43.0,22.0,-100.00,South,175,0.0,9.0,43,0.00,,,0.00,0.000000,,2013-11-15 07:12:00,
2013-11-14 23:21:00,43.0,22.0,-100.00,South,175,0.0,9.0,43,0.00,,,0.00,0.000000,,2013-11-15 07:21:00,
2013-11-14 23:32:00,43.0,22.0,-100.00,South,175,0.0,9.0,43,0.00,,,0.00,0.000000,,2013-11-15 07:32:00,
2013-11-14 23:42:00,43.0,22.0,-100.00,South,175,0.0,9.0,43,0.00,,,0.00,0.000000,,2013-11-15 07:42:00,